createdAt,value
2022-10-11T00:02:19.316Z,100179.63
2022-10-11T00:04:46.495Z,100178.63
2022-10-11T00:07:13.491Z,100166.19
2022-10-11T00:09:40.558Z,100175.91
2022-10-11T00:12:07.556Z,100168.91
2022-10-11T00:14:34.681Z,100178.41
2022-10-11T00:17:01.696Z,100141.97
2022-10-11T00:19:28.768Z,100160.66
2022-10-11T00:21:55.790Z,100132.19
2022-10-11T00:24:23.411Z,100137.41
2022-10-11T00:26:51.036Z,100162.19
2022-10-11T00:29:18.493Z,100139.16
2022-10-11T00:31:46.130Z,100163.09
2022-10-11T00:34:13.478Z,100123.22
2022-10-11T00:36:41.826Z,100155.03
2022-10-11T00:39:09.546Z,100155.03
2022-10-11T00:41:37.535Z,100155.03
2022-10-11T00:44:13.850Z,100151.41
2022-10-11T00:46:44.795Z,100114.25
2022-10-11T00:49:18.428Z,100154.81
2022-10-11T00:52:11.752Z,100151.28
2022-10-11T00:54:43.054Z,100158.16
2022-10-11T00:57:14.648Z,100130.63
2022-10-11T00:59:45.356Z,100110.13
2022-10-11T01:02:13.472Z,100150.94
2022-10-11T01:04:41.340Z,100138.47
2022-10-11T01:07:10.080Z,100130.28
2022-10-11T01:09:37.287Z,100140.16
2022-10-11T01:12:12.418Z,100116.91
2022-10-11T01:14:47.297Z,100147.91
2022-10-11T01:17:23.654Z,100137.13
2022-10-11T01:20:08.792Z,100153.25
2022-10-11T01:22:54.886Z,100134.81
2022-10-11T01:25:28.203Z,100148.09
2022-10-11T01:28:10.319Z,100139.38
2022-10-11T01:30:38.939Z,100111.78
2022-10-11T01:33:06.403Z,100142.81
2022-10-11T01:35:43.681Z,100142.66
2022-10-11T01:38:20.614Z,100131.09
2022-10-11T01:40:57.777Z,100135.63
2022-10-11T01:43:26.482Z,100108.28
2022-10-11T01:45:57.085Z,100143.69
2022-10-11T01:48:25.072Z,100132.84
2022-10-11T01:50:57.251Z,100139.84
2022-10-11T01:53:39.635Z,100140.66
2022-10-11T01:56:09.511Z,100152.72
2022-10-11T01:59:16.483Z,100143.97
2022-10-11T02:02:03.879Z,100156.97
2022-10-11T02:04:38.921Z,100132.09
2022-10-11T02:07:24.381Z,100127.44
2022-10-11T02:10:05.868Z,100114.31
2022-10-11T02:12:39.838Z,100151.31
2022-10-11T02:15:11.145Z,100155.88
2022-10-11T02:17:44.905Z,100137.03
2022-10-11T02:20:16.510Z,100151.22
2022-10-11T02:22:47.582Z,100135.16
2022-10-11T02:25:20.190Z,100152.84
2022-10-11T02:27:48.958Z,100103.19
2022-10-11T02:30:16.598Z,100150.28
2022-10-11T02:32:46.604Z,100145.13
2022-10-11T02:35:14.179Z,100136.22
2022-10-11T02:38:10.457Z,100151.13
2022-10-11T02:40:42.109Z,100151.13
2022-10-11T02:43:18.310Z,100154.47
2022-10-11T02:45:51.132Z,100150.06
2022-10-11T02:48:19.157Z,100158.78
2022-10-11T02:50:46.710Z,100149.97
2022-10-11T02:53:13.699Z,100159.56
2022-10-11T02:55:40.767Z,100123.25
2022-10-11T02:58:08.757Z,100129.53
2022-10-11T03:00:36.998Z,100156.94
2022-10-11T03:03:04.346Z,100150.91
2022-10-11T03:05:32.723Z,100146.34
2022-10-11T03:07:59.836Z,100154.34
2022-10-11T03:10:26.946Z,100112.56
2022-10-11T03:12:53.927Z,100158.56
2022-10-11T03:15:21.738Z,100143.59
2022-10-11T03:17:49.352Z,100135.53
2022-10-11T03:20:16.825Z,100145.25
2022-10-11T03:22:44.589Z,100154.69
2022-10-11T03:25:11.968Z,100106.66
2022-10-11T03:27:39.127Z,100142.34
2022-10-11T03:30:09.119Z,100151.81
2022-10-11T03:32:36.411Z,100148.25
2022-10-11T03:35:03.876Z,100112.06
2022-10-11T03:37:31.033Z,100141.03
2022-10-11T03:39:58.059Z,100124.13
2022-10-11T03:42:25.063Z,100148.06
2022-10-11T03:44:52.135Z,100134.06
2022-10-11T03:47:19.171Z,100136.84
2022-10-11T03:49:46.139Z,100129.59
2022-10-11T03:52:13.344Z,100140.31
2022-10-11T03:54:40.451Z,100132.31
2022-10-11T03:57:07.347Z,100142.84
2022-10-11T03:59:34.489Z,100117.19
2022-10-11T04:02:02.100Z,100132.31
2022-10-11T04:04:29.695Z,100124.50
2022-10-11T04:06:56.644Z,100118.56
2022-10-11T04:09:23.625Z,100134.63
2022-10-11T04:11:50.589Z,100133.06
2022-10-11T04:14:17.670Z,100125.25
2022-10-11T04:16:44.627Z,100101.69
2022-10-11T04:19:11.575Z,100133.28
2022-10-11T04:21:38.688Z,100114.09
2022-10-11T04:24:06.223Z,100080.66
2022-10-11T04:26:33.363Z,100109.22
2022-10-11T04:29:00.513Z,100129.00
2022-10-11T04:31:27.412Z,100107.00
2022-10-11T04:33:54.447Z,100117.69
2022-10-11T04:36:21.500Z,100118.84
2022-10-11T04:38:48.684Z,100119.63
2022-10-11T04:41:16.580Z,100126.53
2022-10-11T04:43:43.954Z,100071.50
2022-10-11T04:46:11.616Z,100122.03
2022-10-11T04:48:38.899Z,100104.09
2022-10-11T04:51:06.059Z,100105.97
2022-10-11T04:53:33.130Z,100100.66
2022-10-11T04:56:03.544Z,100110.41
2022-10-11T04:58:33.007Z,100119.06
2022-10-11T05:01:00.815Z,100128.22
2022-10-11T05:03:28.400Z,100130.41
2022-10-11T05:05:55.753Z,100135.91
2022-10-11T05:08:23.804Z,100133.03
2022-10-11T05:11:05.929Z,100100.13
2022-10-11T05:13:34.751Z,100101.44
2022-10-11T05:16:08.231Z,100131.16
2022-10-11T05:18:37.964Z,100128.91
2022-10-11T05:21:14.409Z,100124.34
2022-10-11T05:23:41.523Z,100126.66
2022-10-11T05:26:08.979Z,100092.78
2022-10-11T05:28:36.123Z,100111.78
2022-10-11T05:31:03.338Z,100090.91
2022-10-11T05:33:31.535Z,100131.63
2022-10-11T05:35:58.550Z,100108.53
2022-10-11T05:38:25.880Z,100097.78
2022-10-11T05:40:53.502Z,100124.06
2022-10-11T05:43:20.638Z,100127.34
2022-10-11T05:45:48.333Z,100130.63
2022-10-11T05:48:16.183Z,100099.81
2022-10-11T05:50:43.839Z,100072.03
2022-10-11T05:53:11.486Z,100120.19
2022-10-11T05:55:40.198Z,100079.94
2022-10-11T05:58:08.216Z,100106.91
2022-10-11T06:00:38.549Z,100107.34
2022-10-11T06:03:06.560Z,100110.28
2022-10-11T06:05:35.279Z,100100.00
2022-10-11T06:08:03.839Z,100079.06
2022-10-11T06:10:31.328Z,100098.53
2022-10-11T06:12:59.608Z,100090.78
2022-10-11T06:15:26.914Z,100092.84
2022-10-11T06:17:54.444Z,100092.09
2022-10-11T06:20:22.157Z,100083.41
2022-10-11T06:22:49.244Z,100057.97
2022-10-11T06:25:16.982Z,100057.16
2022-10-11T06:27:44.042Z,100090.66
2022-10-11T06:30:11.569Z,100031.72
2022-10-11T06:32:38.656Z,100072.22
2022-10-11T06:35:06.281Z,100050.25
2022-10-11T06:37:33.366Z,100026.47
2022-10-11T06:40:00.697Z,100083.69
2022-10-11T06:42:27.969Z,100028.25
2022-10-11T06:44:55.107Z,100051.09
2022-10-11T06:47:22.003Z,100085.38
2022-10-11T06:49:49.223Z,100085.25
2022-10-11T06:52:16.254Z,100078.94
2022-10-11T06:54:45.074Z,100081.31
2022-10-11T06:57:12.323Z,100071.25
2022-10-11T06:59:39.383Z,100069.19
2022-10-11T07:02:06.936Z,100074.38
2022-10-11T07:04:34.204Z,100066.88
2022-10-11T07:07:01.680Z,100077.31
2022-10-11T07:09:28.607Z,100072.78
2022-10-11T07:11:55.957Z,100065.50
2022-10-11T07:14:23.291Z,100058.88
2022-10-11T07:16:50.244Z,100065.34
2022-10-11T07:19:17.229Z,100053.97
2022-10-11T07:21:44.263Z,100051.00
2022-10-11T07:24:12.062Z,100056.44
2022-10-11T07:26:39.515Z,100061.31
2022-10-11T07:29:08.568Z,100050.63
2022-10-11T07:31:37.961Z,100049.81
2022-10-11T07:34:05.652Z,100049.34
2022-10-11T07:36:32.891Z,100039.66
2022-10-11T07:39:00.376Z,100047.13
2022-10-11T07:41:27.467Z,100051.72
2022-10-11T07:43:55.161Z,100048.69
2022-10-11T07:46:22.523Z,100043.69
2022-10-11T07:48:53.015Z,100048.94
2022-10-11T07:51:22.709Z,100061.41
2022-10-11T07:53:52.437Z,100039.03
2022-10-11T07:56:22.064Z,100045.50
2022-10-11T07:59:00.639Z,100045.66
2022-10-11T08:01:28.576Z,100042.53
2022-10-11T08:03:57.141Z,100034.66
2022-10-11T08:06:29.437Z,100030.75
2022-10-11T08:08:57.956Z,100036.00
2022-10-11T08:11:36.565Z,100001.31
2022-10-11T08:14:08.982Z,100032.34
2022-10-11T08:16:38.216Z,100014.22
2022-10-11T08:19:07.296Z,100030.38
2022-10-11T08:21:35.126Z,100010.06
2022-10-11T08:24:04.202Z,100024.63
2022-10-11T08:26:32.866Z,100019.22
2022-10-11T08:29:05.431Z,100024.31
2022-10-11T08:31:34.260Z,100007.56
2022-10-11T08:34:01.287Z,100022.13
2022-10-11T08:36:28.580Z,100008.06
2022-10-11T08:38:55.775Z,100011.28
2022-10-11T08:41:57.878Z,100011.63
2022-10-11T08:44:58.719Z,100005.94
2022-10-11T08:47:30.834Z,99988.59
2022-10-11T08:49:59.787Z,100003.78
2022-10-11T08:52:45.453Z,99997.91
2022-10-11T08:55:21.506Z,100000.25
2022-10-11T08:57:56.070Z,99979.28
2022-10-11T09:00:24.583Z,99990.66
2022-10-11T09:03:09.362Z,99992.50
2022-10-11T09:06:05.312Z,99976.94
2022-10-11T09:09:03.796Z,99985.94
2022-10-11T09:11:48.559Z,99987.06
2022-10-11T09:14:39.577Z,99990.91
2022-10-11T09:17:41.404Z,99983.75
2022-10-11T09:20:36.350Z,99970.38
2022-10-11T09:23:25.424Z,99966.47
2022-10-11T09:25:58.766Z,99969.44
2022-10-11T09:28:34.589Z,99966.06
2022-10-11T09:31:01.854Z,99945.50
2022-10-11T09:34:01.180Z,99960.94
2022-10-11T09:37:00.213Z,99960.41
2022-10-11T09:39:54.060Z,99939.19
2022-10-11T09:42:21.213Z,99917.63
2022-10-11T09:44:48.602Z,99948.97
2022-10-11T09:47:27.309Z,99944.00
2022-10-11T09:50:00.871Z,99940.25
2022-10-11T09:52:27.856Z,99932.16
2022-10-11T09:54:58.179Z,99937.28
2022-10-11T09:57:26.468Z,99929.53
2022-10-11T10:00:05.787Z,99926.47
2022-10-11T10:02:49.014Z,99927.44
2022-10-11T10:05:31.175Z,99916.47
2022-10-11T10:08:22.718Z,99922.28
2022-10-11T10:10:59.718Z,99901.81
2022-10-11T10:13:39.436Z,99905.72
2022-10-11T10:16:11.818Z,99896.09
2022-10-11T10:18:52.801Z,99890.66
2022-10-11T10:21:27.911Z,99910.16
2022-10-11T10:23:56.778Z,99894.47
2022-10-11T10:26:27.551Z,99886.94
2022-10-11T10:29:01.710Z,99889.28
2022-10-11T10:31:32.814Z,99902.06
2022-10-11T10:34:12.669Z,99898.41
2022-10-11T10:36:46.635Z,99896.59
2022-10-11T10:39:23.136Z,99875.25
2022-10-11T10:41:50.287Z,99894.38
2022-10-11T10:44:17.240Z,99897.19
2022-10-11T10:47:09.092Z,99891.91
2022-10-11T10:49:54.460Z,99878.69
2022-10-11T10:52:49.915Z,99887.59
2022-10-11T10:55:25.435Z,99886.78
2022-10-11T10:58:24.766Z,99877.47
2022-10-11T11:01:05.978Z,99872.31
2022-10-11T11:03:52.567Z,99878.47
2022-10-11T11:06:44.414Z,99866.94
2022-10-11T11:09:33.134Z,99864.31
2022-10-11T11:12:41.340Z,99871.50
2022-10-11T11:15:31.418Z,99858.56
2022-10-11T11:18:28.561Z,99853.22
2022-10-11T11:21:13.090Z,99857.66
2022-10-11T11:23:56.527Z,99829.41
2022-10-11T11:27:01.040Z,99850.41
2022-10-11T11:29:41.421Z,99848.97
2022-10-11T11:32:54.097Z,99847.03
2022-10-11T11:35:46.475Z,99850.22
2022-10-11T11:38:33.973Z,99838.25
2022-10-11T11:41:06.287Z,99830.31
2022-10-11T11:43:59.524Z,99836.25
2022-10-11T11:46:37.534Z,99818.28
2022-10-11T11:49:16.847Z,99802.00
2022-10-11T11:51:46.363Z,99806.63
2022-10-11T11:54:19.650Z,99825.69
2022-10-11T11:57:03.198Z,99828.50
2022-10-11T11:59:44.184Z,99809.28
2022-10-11T12:02:32.959Z,99816.31
2022-10-11T12:05:00.696Z,99827.34
2022-10-11T12:07:29.379Z,99820.84
2022-10-11T12:10:50.065Z,99825.19
2022-10-11T12:13:17.605Z,99817.63
2022-10-11T12:15:59.326Z,99809.63
2022-10-11T12:18:27.673Z,99813.91
2022-10-11T12:21:26.901Z,99813.63
2022-10-11T12:23:58.929Z,99803.41
2022-10-11T12:26:28.661Z,99809.16
2022-10-11T12:29:17.280Z,99810.16
2022-10-11T12:32:11.180Z,99797.72
2022-10-11T12:34:42.974Z,99788.69
2022-10-11T12:37:22.679Z,99791.84
2022-10-11T12:39:51.045Z,99771.56
2022-10-11T12:42:27.750Z,99789.19
2022-10-11T12:45:13.289Z,99797.88
2022-10-11T12:47:53.158Z,99787.22
2022-10-11T12:50:31.163Z,99787.88
2022-10-11T12:53:03.645Z,99791.00
2022-10-11T12:55:50.586Z,99789.28
2022-10-11T12:58:38.736Z,99779.41
2022-10-11T13:01:17.782Z,99779.34
2022-10-11T13:03:53.288Z,99779.50
2022-10-11T13:06:27.569Z,99764.25
2022-10-11T13:09:24.951Z,99769.00
2022-10-11T13:12:13.746Z,99772.88
2022-10-11T13:15:08.589Z,99741.50
2022-10-11T13:17:38.920Z,99772.88
2022-10-11T13:20:28.947Z,99758.09
2022-10-11T13:22:57.086Z,99767.97
2022-10-11T13:25:27.502Z,99764.09
2022-10-11T13:27:55.451Z,99767.63
2022-10-11T13:30:31.799Z,99768.78
2022-10-11T13:33:00.708Z,99743.53
2022-10-11T13:35:36.664Z,99743.09
2022-10-11T13:38:08.052Z,99741.47
2022-10-11T13:40:35.956Z,99756.28
2022-10-11T13:43:05.930Z,99770.44
2022-10-11T13:45:36.029Z,99767.81
2022-10-11T13:48:03.327Z,99770.47
2022-10-11T13:50:35.426Z,99750.41
2022-10-11T13:53:21.375Z,99770.66
2022-10-11T13:56:12.508Z,99771.84
2022-10-11T13:58:46.298Z,99768.66
2022-10-11T14:01:44.051Z,99765.38
2022-10-11T14:04:15.503Z,99759.56
2022-10-11T14:06:51.576Z,99740.25
2022-10-11T14:09:26.542Z,99770.91
2022-10-11T14:11:54.644Z,99753.34
2022-10-11T14:14:33.510Z,99766.06
2022-10-11T14:17:14.872Z,99740.22
2022-10-11T14:19:43.245Z,99755.69
2022-10-11T14:22:17.151Z,99755.19
2022-10-11T14:24:48.187Z,99772.31
2022-10-11T14:27:19.432Z,99780.59
2022-10-11T14:30:00.486Z,99762.50
2022-10-11T14:32:34.507Z,99777.56
2022-10-11T14:35:01.828Z,99776.94
2022-10-11T14:37:30.391Z,99749.00
2022-10-11T14:39:57.325Z,99777.22
2022-10-11T14:42:24.517Z,99765.94
2022-10-11T14:44:51.784Z,99773.94
2022-10-11T14:47:18.761Z,99784.56
2022-10-11T14:49:45.818Z,99773.22
2022-10-11T14:52:13.872Z,99768.00
2022-10-11T14:54:41.757Z,99794.38
2022-10-11T14:57:11.954Z,99805.81
2022-10-11T14:59:39.103Z,99800.56
2022-10-11T15:02:07.771Z,99797.94
2022-10-11T15:04:35.004Z,99789.16
2022-10-11T15:07:06.261Z,99805.81
2022-10-11T15:09:33.576Z,99797.03
2022-10-11T15:12:00.622Z,99808.41
2022-10-11T15:14:27.551Z,99797.81
2022-10-11T15:16:56.252Z,99803.94
2022-10-11T15:19:25.351Z,99811.81
2022-10-11T15:21:52.447Z,99816.19
2022-10-11T15:24:22.658Z,99788.00
2022-10-11T15:26:49.908Z,99783.56
2022-10-11T15:29:21.972Z,99804.66
2022-10-11T15:31:49.635Z,99804.63
2022-10-11T15:34:17.566Z,99809.88
2022-10-11T15:36:44.551Z,99800.22
2022-10-11T15:39:25.757Z,99813.38
2022-10-11T15:41:53.014Z,99812.50
2022-10-11T15:44:20.053Z,99801.94
2022-10-11T15:46:47.072Z,99796.63
2022-10-11T15:49:14.793Z,99804.47
2022-10-11T15:51:41.970Z,99805.34
2022-10-11T15:54:08.997Z,99798.25
2022-10-11T15:56:35.999Z,99799.16
2022-10-11T15:59:03.167Z,99799.09
2022-10-11T16:01:30.234Z,99812.25
2022-10-11T16:03:57.301Z,99812.25
2022-10-11T16:06:24.352Z,99793.72
2022-10-11T16:08:51.365Z,99790.13
2022-10-11T16:11:18.357Z,99780.44
2022-10-11T16:13:45.502Z,99801.53
2022-10-11T16:16:12.607Z,99814.63
2022-10-11T16:18:40.483Z,99794.41
2022-10-11T16:21:15.685Z,99804.09
2022-10-11T16:23:43.184Z,99797.97
2022-10-11T16:26:14.024Z,99802.34
2022-10-11T16:28:42.125Z,99795.28
2022-10-11T16:31:11.430Z,99805.00
2022-10-11T16:33:45.883Z,99804.09
2022-10-11T16:36:40.751Z,99771.56
2022-10-11T16:39:12.825Z,99789.06
2022-10-11T16:41:40.959Z,99790.81
2022-10-11T16:44:11.991Z,99805.72
2022-10-11T16:46:39.905Z,99774.97
2022-10-11T16:49:07.086Z,99774.91
2022-10-11T16:51:34.194Z,99793.38
2022-10-11T16:54:01.552Z,99791.63
2022-10-11T16:56:28.674Z,99791.66
2022-10-11T16:58:56.336Z,99777.53
2022-10-11T17:01:24.079Z,99791.53
2022-10-11T17:03:54.544Z,99791.47
2022-10-11T17:06:26.009Z,99769.41
2022-10-11T17:09:00.087Z,99779.09
2022-10-11T17:11:29.777Z,99790.41
2022-10-11T17:13:58.792Z,99775.47
2022-10-11T17:16:26.795Z,99769.34
2022-10-11T17:18:55.099Z,99768.47
2022-10-11T17:21:22.990Z,99770.94
2022-10-11T17:23:51.607Z,99786.63
2022-10-11T17:26:26.353Z,99770.00
2022-10-11T17:28:56.673Z,99779.81
2022-10-11T17:31:25.416Z,99776.38
2022-10-11T17:33:54.450Z,99770.22
2022-10-11T17:36:34.726Z,99764.84
2022-10-11T17:39:05.825Z,99770.94
2022-10-11T17:41:33.346Z,99712.06
2022-10-11T17:44:03.050Z,99761.38
2022-10-11T17:46:33.674Z,99759.56
2022-10-11T17:49:04.986Z,99750.66
2022-10-11T17:51:33.152Z,99717.06
2022-10-11T17:54:00.344Z,99757.56
2022-10-11T17:56:32.383Z,99728.44
2022-10-11T17:59:02.278Z,99761.88
2022-10-11T18:01:29.946Z,99766.25
2022-10-11T18:03:59.994Z,99753.19
2022-10-11T18:06:30.237Z,99738.13
2022-10-11T18:08:59.948Z,99758.31
2022-10-11T18:11:28.907Z,99765.22
2022-10-11T18:14:01.649Z,99755.47
2022-10-11T18:16:33.146Z,99740.50
2022-10-11T18:19:03.281Z,99765.84
2022-10-11T18:21:34.402Z,99748.25
2022-10-11T18:24:05.860Z,99758.72
2022-10-11T18:26:33.209Z,99760.44
2022-10-11T18:29:02.083Z,99754.28
2022-10-11T18:31:35.400Z,99758.59
2022-10-11T18:34:05.660Z,99755.00
2022-10-11T18:36:33.044Z,99749.66
2022-10-11T18:39:06.781Z,99756.63
2022-10-11T18:41:34.263Z,99727.69
2022-10-11T18:44:05.054Z,99753.97
2022-10-11T18:46:33.552Z,99721.47
2022-10-11T18:49:02.334Z,99740.03
2022-10-11T18:51:35.230Z,99726.75
2022-10-11T18:54:04.478Z,99723.38
2022-10-11T18:56:38.831Z,99746.28
2022-10-11T18:59:06.754Z,99744.53
2022-10-11T19:01:38.500Z,99735.81
2022-10-11T19:04:08.618Z,99710.19
2022-10-11T19:06:42.811Z,99735.66
2022-10-11T19:09:13.484Z,99728.50
2022-10-11T19:11:41.509Z,99701.19
2022-10-11T19:14:11.633Z,99710.03
2022-10-11T19:16:42.366Z,99701.16
2022-10-11T19:19:12.288Z,99725.88
2022-10-11T19:21:40.839Z,99728.50
2022-10-11T19:24:08.764Z,99719.84
2022-10-11T19:26:41.441Z,99730.28
2022-10-11T19:29:15.072Z,99721.38
2022-10-11T19:31:48.707Z,99716.06
2022-10-11T19:34:16.633Z,99726.47
2022-10-11T19:36:45.031Z,99722.13
2022-10-11T19:39:14.223Z,99720.34
2022-10-11T19:41:42.691Z,99723.66
2022-10-11T19:44:11.102Z,99727.91
2022-10-11T19:46:50.849Z,99722.63
2022-10-11T19:49:21.684Z,99730.47
2022-10-11T19:51:48.916Z,99729.44
2022-10-11T19:54:16.329Z,99724.84
2022-10-11T19:56:44.770Z,99707.19
2022-10-11T19:59:12.878Z,99728.16
2022-10-11T20:01:41.431Z,99729.06
2022-10-11T20:04:27.421Z,99723.00
2022-10-11T20:06:54.951Z,99724.75
2022-10-11T20:09:29.613Z,99729.00
2022-10-11T20:11:57.822Z,99714.00
2022-10-11T20:14:25.578Z,99700.06
2022-10-11T20:16:53.481Z,99716.81
2022-10-11T20:19:26.192Z,99722.00
2022-10-11T20:21:55.214Z,99701.63
2022-10-11T20:24:23.025Z,99700.63
2022-10-11T20:26:51.939Z,99691.44
2022-10-11T20:29:19.967Z,99729.84
2022-10-11T20:31:47.565Z,99711.44
2022-10-11T20:34:14.954Z,99692.94
2022-10-11T20:36:44.679Z,99703.38
2022-10-11T20:39:15.403Z,99706.81
2022-10-11T20:41:43.413Z,99710.50
2022-10-11T20:44:13.266Z,99676.09
2022-10-11T20:46:40.463Z,99708.69
2022-10-11T20:49:09.905Z,99712.03
2022-10-11T20:51:39.591Z,99696.09
2022-10-11T20:54:08.142Z,99695.06
2022-10-11T20:56:36.645Z,99708.06
2022-10-11T20:59:05.312Z,99660.47
2022-10-11T21:01:37.989Z,99689.50
2022-10-11T21:04:07.167Z,99690.47
2022-10-11T21:06:34.695Z,99701.78
2022-10-11T21:09:02.596Z,99689.31
2022-10-11T21:11:33.554Z,99656.56
2022-10-11T21:14:03.963Z,99699.66
2022-10-11T21:16:31.340Z,99691.84
2022-10-11T21:19:00.122Z,99690.81
2022-10-11T21:21:28.330Z,99701.50
2022-10-11T21:24:00.454Z,99681.06
2022-10-11T21:26:28.834Z,99663.28
2022-10-11T21:28:56.312Z,99696.72
2022-10-11T21:31:24.532Z,99698.38
2022-10-11T21:33:52.203Z,99677.06
2022-10-11T21:36:23.365Z,99694.69
2022-10-11T21:38:51.299Z,99675.28
2022-10-11T21:41:21.067Z,99694.44
2022-10-11T21:43:48.897Z,99691.00
2022-10-11T21:46:21.470Z,99677.13
2022-10-11T21:48:51.913Z,99687.50
2022-10-11T21:51:26.236Z,99688.44
2022-10-11T21:53:55.876Z,99668.22
2022-10-11T21:56:24.079Z,99677.41
2022-10-11T21:58:51.401Z,99665.28
2022-10-11T22:01:20.148Z,99682.97
2022-10-11T22:03:47.668Z,99680.97
2022-10-11T22:06:15.457Z,99677.31
2022-10-11T22:08:42.751Z,99659.53
2022-10-11T22:11:09.864Z,99682.25
2022-10-11T22:13:37.806Z,99675.16
2022-10-11T22:16:09.975Z,99687.25
2022-10-11T22:18:37.801Z,99674.09
2022-10-11T22:21:06.934Z,99690.72
2022-10-11T22:23:34.825Z,99688.03
2022-10-11T22:26:06.767Z,99676.50
2022-10-11T22:28:34.372Z,99680.06
2022-10-11T22:31:02.134Z,99648.97
2022-10-11T22:33:29.155Z,99648.03
2022-10-11T22:35:58.020Z,99682.09
2022-10-11T22:38:26.360Z,99681.38
2022-10-11T22:40:53.578Z,99686.78
2022-10-11T22:43:21.178Z,99681.59
2022-10-11T22:45:48.268Z,99653.47
2022-10-11T22:48:15.797Z,99664.28
2022-10-11T22:50:43.021Z,99673.09
2022-10-11T22:53:10.174Z,99660.75
2022-10-11T22:55:37.198Z,99634.44
2022-10-11T22:58:04.323Z,99642.25
2022-10-11T23:00:31.818Z,99644.19
2022-10-11T23:02:59.246Z,99667.97
2022-10-11T23:05:26.367Z,99648.78
2022-10-11T23:07:53.366Z,99647.16
2022-10-11T23:10:20.511Z,99671.84
2022-10-11T23:12:47.546Z,99651.97
2022-10-11T23:15:15.448Z,99659.84
2022-10-11T23:17:42.615Z,99665.03
2022-10-11T23:20:10.857Z,99665.13
2022-10-11T23:22:37.880Z,99650.97
2022-10-11T23:25:05.636Z,99659.72
2022-10-11T23:27:32.690Z,99636.06
2022-10-11T23:29:59.678Z,99657.13
2022-10-11T23:32:26.650Z,99667.53
2022-10-11T23:34:53.681Z,99629.59
2022-10-11T23:37:21.148Z,99654.41
2022-10-11T23:39:48.482Z,99644.50
2022-10-11T23:42:15.476Z,99650.31
2022-10-11T23:44:42.447Z,99641.59
2022-10-11T23:47:09.528Z,99633.31
2022-10-11T23:49:36.866Z,99644.66
2022-10-11T23:52:04.838Z,99648.03
2022-10-11T23:54:31.767Z,99609.09
2022-10-11T23:56:58.690Z,99637.94
2022-10-11T23:59:25.873Z,99645.53
